Time;durP1;ratioP1;P1;durP2;ratioP2;P2;SDS_P1;SDS_P2;PMS_P1;PMS_P2;Temp;Humidity;BMP_temperature;BMP_pressure;BME280_temperature;BME280_humidity;BME280_pressure;Samples;Min_cycle;Max_cycle;Signal;HPM_P1;HPM_P2
2023/03/29 00:02:29;;;;;;;1.50;1.40;;;;;;;6.64;55.49;96115.47;6220690;23;20228;-86
2023/03/29 00:05:05;;;;;;;2.00;1.80;;;;;;;6.63;55.73;96116.41;6221266;23;20158;-87
2023/03/29 00:07:37;;;;;;;2.87;2.00;;;;;;;6.58;55.62;96122.75;6221145;23;20158;-85
2023/03/29 00:10:12;;;;;;;4.50;2.80;;;;;;;6.52;55.89;96133.53;6221564;23;20190;-87
2023/03/29 00:12:40;;;;;;;2.37;2.10;;;;;;;6.53;56.41;96142.03;6221087;23;20154;-85
2023/03/29 00:15:07;;;;;;;2.20;2.00;;;;;;;6.46;57.20;96140.94;6220801;23;20491;-88
2023/03/29 00:17:36;;;;;;;2.67;2.00;;;;;;;6.42;57.22;96150.66;6221001;23;20205;-87
2023/03/29 00:20:06;;;;;;;3.20;2.30;;;;;;;6.45;57.51;96152.13;6220820;23;20189;-87
2023/03/29 00:22:36;;;;;;;2.30;2.10;;;;;;;6.44;58.48;96151.31;6220934;23;20256;-87
2023/03/29 00:25:08;;;;;;;2.90;1.90;;;;;;;6.40;58.75;96155.09;6220744;23;20181;-87
2023/03/29 00:27:35;;;;;;;2.33;2.00;;;;;;;6.32;59.23;96152.44;6220744;23;20240;-86
2023/03/29 00:30:03;;;;;;;2.17;1.87;;;;;;;6.35;59.69;96162.34;6220823;23;20723;-87
2023/03/29 00:32:29;;;;;;;2.33;2.00;;;;;;;6.45;59.26;96155.50;6220711;23;20182;-86
2023/03/29 00:34:56;;;;;;;2.93;2.03;;;;;;;6.53;59.78;96152.25;6219888;23;20172;-87
2023/03/29 00:37:25;;;;;;;3.13;1.90;;;;;;;6.59;59.57;96155.06;6220570;23;20177;-86
2023/03/29 00:39:53;;;;;;;2.13;1.93;;;;;;;6.66;59.92;96151.97;6221049;23;20198;-87
2023/03/29 00:42:20;;;;;;;1.80;1.70;;;;;;;6.62;61.61;96143.75;6220472;23;20511;-86
2023/03/29 00:44:59;;;;;;;3.47;1.80;;;;;;;6.67;61.84;96146.69;6220524;23;20185;-86
2023/03/29 00:47:29;;;;;;;1.70;1.60;;;;;;;6.52;62.51;96148.91;6221064;23;20166;-86
2023/03/29 00:50:00;;;;;;;2.00;1.30;;;;;;;6.50;64.02;96143.09;6221944;23;20200;-88
2023/03/29 00:52:30;;;;;;;1.50;1.40;;;;;;;6.52;62.76;96146.34;6220394;23;20245;-87
2023/03/29 00:55:01;;;;;;;1.90;1.70;;;;;;;6.55;63.82;96143.47;6220530;23;20640;-86
2023/03/29 00:57:30;;;;;;;3.10;1.60;;;;;;;6.59;63.21;96138.91;6220727;23;20158;-87
2023/03/29 00:59:59;;;;;;;1.30;1.20;;;;;;;6.64;63.01;96141.84;6219655;23;20205;-86
2023/03/29 01:02:33;;;;;;;1.60;1.30;;;;;;;6.58;64.45;96145.78;6219608;23;20212;-86
2023/03/29 01:05:08;;;;;;;1.60;1.50;;;;;;;6.53;66.09;96140.28;6220362;23;20161;-85
2023/03/29 01:07:46;;;;;;;2.03;1.60;;;;;;;6.55;67.23;96135.81;6220559;23;20164;-88
2023/03/29 01:10:19;;;;;;;3.47;1.97;;;;;;;6.54;68.28;96130.84;6219269;23;20201;-87
2023/03/29 01:12:53;;;;;;;1.30;1.20;;;;;;;6.42;69.29;96121.69;6219657;23;20200;-86
2023/03/29 01:15:24;;;;;;;2.00;1.60;;;;;;;6.52;68.63;96113.09;6219932;23;20166;-87
2023/03/29 01:17:52;;;;;;;1.67;1.50;;;;;;;6.53;70.49;96113.88;6217049;23;20182;-86
2023/03/29 01:20:23;;;;;;;1.93;1.47;;;;;;;6.52;70.91;96107.16;6217157;23;20239;-86
2023/03/29 01:23:07;;;;;;;1.70;1.60;;;;;;;6.48;71.63;96106.63;6218073;23;20177;-85
2023/03/29 01:25:41;;;;;;;2.00;1.43;;;;;;;6.56;70.92;96100.78;6217255;23;20162;-86
2023/03/29 01:28:11;;;;;;;1.70;1.40;;;;;;;6.58;70.60;96078.44;6217039;23;20656;-85
2023/03/29 01:30:43;;;;;;;1.87;1.40;;;;;;;6.62;70.89;96084.91;6217257;23;20583;-87
2023/03/29 01:33:19;;;;;;;1.53;1.40;;;;;;;6.66;70.72;96082.88;6217390;23;20709;-86
2023/03/29 01:35:51;;;;;;;2.00;1.43;;;;;;;6.64;71.69;96080.44;6217227;23;20164;-86
2023/03/29 01:38:21;;;;;;;1.50;1.40;;;;;;;6.60;72.74;96079.13;6216917;23;20178;-85
2023/03/29 01:40:47;;;;;;;1.50;1.40;;;;;;;6.60;72.56;96068.88;6216813;23;20197;-85
2023/03/29 01:43:27;;;;;;;1.83;1.70;;;;;;;6.61;71.62;96060.25;6215795;23;20185;-86
2023/03/29 01:46:03;;;;;;;1.70;1.60;;;;;;;6.56;72.76;96047.06;6215443;23;20161;-85
2023/03/29 01:48:34;;;;;;;1.50;1.40;;;;;;;6.54;72.96;96039.53;6214996;23;20552;-86
2023/03/29 01:51:08;;;;;;;1.93;1.60;;;;;;;6.50;73.55;96035.66;6217120;23;20580;-86
2023/03/29 01:53:39;;;;;;;2.07;1.60;;;;;;;6.50;74.22;96029.75;6219691;23;20226;-88
2023/03/29 01:56:10;;;;;;;1.87;1.57;;;;;;;6.56;73.09;96029.97;6220520;23;20173;-86
2023/03/29 01:58:43;;;;;;;1.70;1.60;;;;;;;6.52;74.33;96030.41;6220257;23;20181;-87
2023/03/29 02:01:16;;;;;;;1.43;1.33;;;;;;;6.54;73.65;96042.09;6218662;23;20210;-87
2023/03/29 02:03:53;;;;;;;2.87;1.40;;;;;;;6.41;75.27;96015.22;6219514;23;20162;-86
2023/03/29 02:06:23;;;;;;;2.17;1.60;;;;;;;6.36;74.54;96015.63;6218984;23;20165;-86
2023/03/29 02:08:51;;;;;;;2.20;1.60;;;;;;;6.45;73.33;96025.03;6218577;23;20455;-87
2023/03/29 02:11:19;;;;;;;1.30;1.20;;;;;;;6.51;73.89;96011.72;6217932;23;20196;-87
2023/03/29 02:13:46;;;;;;;1.60;1.30;;;;;;;6.50;73.78;96010.09;6218973;23;20633;-87
2023/03/29 02:16:14;;;;;;;2.50;1.20;;;;;;;6.44;74.83;96004.72;6218900;23;20225;-85
2023/03/29 02:18:42;;;;;;;1.43;1.30;;;;;;;6.45;74.30;96008.91;6218029;23;20731;-87
2023/03/29 02:21:17;;;;;;;1.40;1.30;;;;;;;6.53;73.89;96009.00;6218727;23;20200;-85
2023/03/29 02:23:47;;;;;;;1.30;1.20;;;;;;;6.43;75.39;96009.03;6218982;23;20219;-85
2023/03/29 02:26:14;;;;;;;1.60;1.20;;;;;;;6.38;75.53;96000.16;6218494;23;20193;-85
2023/03/29 02:28:42;;;;;;;1.47;1.37;;;;;;;6.43;76.07;95998.00;6219756;23;20177;-86
2023/03/29 02:31:16;;;;;;;1.40;1.30;;;;;;;6.35;75.93;95985.13;6219995;23;20197;-86
2023/03/29 02:33:50;;;;;;;1.30;1.20;;;;;;;6.35;76.11;95988.47;6220272;23;20357;-86
2023/03/29 02:36:21;;;;;;;1.23;1.13;;;;;;;6.31;76.57;95983.78;6219780;23;20167;-88
2023/03/29 02:38:47;;;;;;;1.60;1.30;;;;;;;6.32;76.68;95975.97;6219228;23;20182;-86
2023/03/29 02:41:16;;;;;;;1.60;1.27;;;;;;;6.30;77.43;95972.75;6218823;23;20204;-86
2023/03/29 02:43:44;;;;;;;1.30;1.20;;;;;;;6.31;76.28;95969.25;6218744;23;20162;-87
2023/03/29 02:46:14;;;;;;;1.10;1.00;;;;;;;6.36;76.61;95971.34;6218619;23;20173;-86
2023/03/29 02:48:41;;;;;;;1.57;1.27;;;;;;;6.36;76.50;95959.38;6218596;23;20212;-86
2023/03/29 02:51:18;;;;;;;1.10;1.00;;;;;;;6.36;77.54;95958.56;6218660;23;20664;-85
2023/03/29 02:53:50;;;;;;;1.13;1.03;;;;;;;6.42;76.73;95961.38;6219694;23;20244;-87
2023/03/29 02:56:18;;;;;;;1.23;1.10;;;;;;;6.47;76.21;95964.31;6218887;23;20217;-85
2023/03/29 02:58:44;;;;;;;1.53;1.27;;;;;;;6.43;77.00;95952.75;6218125;23;20197;-86
2023/03/29 03:01:16;;;;;;;1.50;1.17;;;;;;;6.33;77.91;95954.56;6217684;23;20564;-86
2023/03/29 03:03:43;;;;;;;1.40;1.30;;;;;;;6.27;77.72;95946.66;6218665;23;20162;-88
2023/03/29 03:06:11;;;;;;;1.80;1.10;;;;;;;6.24;78.15;95945.19;6219443;23;20184;-87
2023/03/29 03:08:37;;;;;;;1.37;1.20;;;;;;;6.25;78.46;95941.69;6219375;23;20223;-87
2023/03/29 03:11:04;;;;;;;1.40;1.10;;;;;;;6.27;78.29;95947.47;6218383;23;20790;-85
2023/03/29 03:13:30;;;;;;;1.23;1.10;;;;;;;6.06;79.66;95942.56;6218904;23;20178;-87
2023/03/29 03:15:57;;;;;;;1.27;1.10;;;;;;;6.06;79.60;95946.84;6219048;23;20177;-85
2023/03/29 03:18:24;;;;;;;1.00;1.00;;;;;;;6.03;79.78;95939.47;6218894;23;20201;-87
2023/03/29 03:20:55;;;;;;;1.37;1.10;;;;;;;6.09;79.69;95929.50;6217994;23;20204;-85
2023/03/29 03:23:22;;;;;;;1.67;1.10;;;;;;;5.93;80.63;95931.84;6220255;23;20177;-86
2023/03/29 03:25:49;;;;;;;1.27;1.17;;;;;;;5.88;80.76;95928.88;6221097;23;20177;-88
2023/03/29 03:28:15;;;;;;;1.27;1.17;;;;;;;5.95;79.99;95918.94;6220873;23;20235;-86
2023/03/29 03:30:42;;;;;;;1.93;1.30;;;;;;;5.92;80.69;95912.34;6220327;23;20779;-87
2023/03/29 03:33:09;;;;;;;1.73;1.17;;;;;;;5.92;80.12;95907.22;6220625;23;20181;-86
2023/03/29 03:35:37;;;;;;;1.00;1.00;;;;;;;5.94;80.05;95912.22;6220943;23;20173;-86
2023/03/29 03:38:04;;;;;;;1.30;1.20;;;;;;;5.92;80.19;95914.91;6220055;23;20188;-86
2023/03/29 03:40:31;;;;;;;0.90;0.90;;;;;;;5.94;79.96;95900.22;6220188;23;20252;-86
2023/03/29 03:42:57;;;;;;;1.13;1.10;;;;;;;5.92;80.78;95911.53;6220147;23;20185;-87
2023/03/29 03:45:24;;;;;;;2.30;1.10;;;;;;;5.75;81.03;95901.06;6220574;23;20508;-87
2023/03/29 03:47:51;;;;;;;3.20;1.30;;;;;;;5.70;81.34;95894.75;6220076;23;20281;-87
2023/03/29 03:50:18;;;;;;;1.80;1.30;;;;;;;5.68;81.28;95886.44;6219092;23;20204;-86
2023/03/29 03:52:46;;;;;;;1.10;1.10;;;;;;;5.75;81.43;95892.59;6218913;23;20189;-87
2023/03/29 03:55:13;;;;;;;1.10;1.00;;;;;;;5.70;81.20;95885.34;6221266;23;20177;-86
2023/03/29 03:57:39;;;;;;;1.97;1.07;;;;;;;5.64;81.56;95885.91;6219665;23;20181;-87
2023/03/29 04:00:18;;;;;;;2.30;1.10;;;;;;;5.70;81.34;95885.34;6218987;23;20235;-87
2023/03/29 04:02:45;;;;;;;1.20;1.10;;;;;;;5.75;80.82;95879.84;6218495;23;20557;-86
2023/03/29 04:05:11;;;;;;;1.60;1.30;;;;;;;5.82;80.06;95866.34;6220539;23;20177;-86
2023/03/29 04:07:39;;;;;;;3.60;1.10;;;;;;;5.82;80.04;95863.78;6220182;23;20708;-87
2023/03/29 04:10:10;;;;;;;1.30;1.20;;;;;;;5.85;80.35;95860.16;6219812;23;20197;-86
2023/03/29 04:12:36;;;;;;;1.10;1.00;;;;;;;5.86;80.33;95870.22;6219471;23;20161;-88
2023/03/29 04:15:06;;;;;;;0.90;0.90;;;;;;;5.85;79.92;95863.50;6219514;23;20236;-88
2023/03/29 04:17:32;;;;;;;1.23;1.13;;;;;;;5.93;79.94;95862.03;6219794;23;20200;-86
2023/03/29 04:20:01;;;;;;;1.20;1.00;;;;;;;5.97;79.56;95860.78;6217545;23;20205;-86
2023/03/29 04:22:27;;;;;;;1.00;1.00;;;;;;;6.03;79.23;95858.47;6217950;23;20177;-87
2023/03/29 04:24:54;;;;;;;1.10;1.10;;;;;;;6.10;78.80;95861.28;6217390;23;20489;-87
2023/03/29 04:27:21;;;;;;;1.07;0.97;;;;;;;6.13;78.68;95854.16;6217553;23;20257;-86
2023/03/29 04:29:48;;;;;;;2.20;1.20;;;;;;;6.20;78.41;95855.16;6216804;23;20255;-87
2023/03/29 04:32:14;;;;;;;1.20;1.10;;;;;;;6.20;78.24;95849.25;6216620;23;20177;-86
2023/03/29 04:34:40;;;;;;;1.00;1.00;;;;;;;6.22;78.38;95834.56;6217197;23;20568;-87
2023/03/29 04:37:09;;;;;;;1.90;1.10;;;;;;;6.23;78.96;95849.78;6217768;23;20185;-85
2023/03/29 04:39:35;;;;;;;1.13;1.00;;;;;;;6.27;78.62;95847.75;6220558;23;20217;-87
2023/03/29 04:42:02;;;;;;;3.30;1.00;;;;;;;6.35;78.24;95831.69;6219150;23;20192;-85
2023/03/29 04:44:32;;;;;;;1.13;0.90;;;;;;;6.42;78.94;95838.63;6219825;23;20540;-86
2023/03/29 04:46:59;;;;;;;0.80;0.80;;;;;;;6.50;78.04;95837.91;6219751;23;20201;-87
2023/03/29 04:49:25;;;;;;;1.93;1.00;;;;;;;6.55;77.84;95841.63;6218889;23;20173;-86
2023/03/29 04:51:53;;;;;;;1.37;0.90;;;;;;;6.57;78.10;95836.38;6218712;23;20177;-85
2023/03/29 04:54:19;;;;;;;2.00;0.90;;;;;;;6.59;78.24;95825.03;6218738;23;20181;-86
2023/03/29 04:56:46;;;;;;;1.00;0.90;;;;;;;6.66;77.68;95825.28;6218284;23;20184;-86
2023/03/29 04:59:12;;;;;;;0.70;0.70;;;;;;;6.71;77.97;95825.66;6218362;23;20200;-88
2023/03/29 05:01:40;;;;;;;0.90;0.90;;;;;;;6.74;78.18;95824.53;6217749;23;20428;-87
2023/03/29 05:04:07;;;;;;;1.23;1.03;;;;;;;6.75;78.14;95819.25;6218211;23;20182;-86
2023/03/29 05:06:33;;;;;;;0.83;0.83;;;;;;;6.76;78.34;95820.88;6219294;23;20651;-86
2023/03/29 05:08:59;;;;;;;1.33;0.97;;;;;;;6.79;78.30;95827.44;6218702;23;20189;-86
2023/03/29 05:11:26;;;;;;;1.23;0.87;;;;;;;6.75;78.79;95833.81;6218744;23;20198;-86
2023/03/29 05:13:54;;;;;;;1.90;1.10;;;;;;;6.87;77.98;95840.31;6218875;23;20181;-86
2023/03/29 05:16:20;;;;;;;1.77;1.00;;;;;;;6.87;78.32;95832.66;6218201;23;20166;-86
2023/03/29 05:18:48;;;;;;;1.47;1.20;;;;;;;6.88;78.48;95841.94;6217787;23;20228;-87
2023/03/29 05:21:15;;;;;;;2.97;1.00;;;;;;;6.87;77.83;95832.66;6220658;23;20258;-88
2023/03/29 05:23:41;;;;;;;1.43;0.93;;;;;;;6.88;77.95;95834.25;6220874;23;20192;-88
2023/03/29 05:26:08;;;;;;;0.97;0.80;;;;;;;6.90;77.80;95827.25;6221177;23;20197;-87
2023/03/29 05:28:35;;;;;;;2.77;1.33;;;;;;;6.96;77.80;95828.38;6221441;23;20513;-86
2023/03/29 05:31:03;;;;;;;2.10;1.00;;;;;;;7.01;77.54;95828.75;6220627;23;20535;-87
2023/03/29 05:33:29;;;;;;;2.87;1.10;;;;;;;7.12;76.84;95821.63;6220747;23;20177;-85
2023/03/29 05:36:00;;;;;;;1.60;1.00;;;;;;;7.19;76.52;95837.22;6217590;23;20180;-87
2023/03/29 05:38:28;;;;;;;2.33;0.90;;;;;;;7.20;76.29;95841.38;6217555;23;20188;-88
2023/03/29 05:40:55;;;;;;;1.57;0.93;;;;;;;7.25;76.33;95847.66;6219146;23;20201;-86
2023/03/29 05:43:21;;;;;;;1.10;1.00;;;;;;;7.28;76.14;95846.56;6219827;23;20189;-87
2023/03/29 05:45:48;;;;;;;1.10;0.90;;;;;;;7.31;75.83;95840.34;6219795;23;20326;-87
2023/03/29 05:48:14;;;;;;;1.30;1.03;;;;;;;7.37;75.87;95844.84;6219870;23;20186;-86
2023/03/29 05:50:41;;;;;;;3.43;1.33;;;;;;;7.40;75.91;95845.38;6219864;23;20205;-87
2023/03/29 05:53:08;;;;;;;1.33;0.90;;;;;;;7.47;74.98;95848.13;6218571;23;20196;-85
2023/03/29 05:55:35;;;;;;;1.33;0.90;;;;;;;7.55;74.94;95846.41;6219134;23;20186;-87
2023/03/29 05:58:01;;;;;;;1.30;1.10;;;;;;;7.61;74.53;95845.00;6219529;23;20205;-86
2023/03/29 06:00:28;;;;;;;1.00;0.90;;;;;;;7.67;74.53;95846.16;6219169;23;20287;-85
2023/03/29 06:02:55;;;;;;;7.53;5.57;;;;;;;7.68;74.87;95843.47;6218991;23;20178;-87
2023/03/29 06:05:22;;;;;;;2.27;1.70;;;;;;;7.75;74.20;95843.63;6219463;23;20233;-86
2023/03/29 06:07:48;;;;;;;0.97;0.97;;;;;;;7.71;74.14;95837.19;6219560;23;20185;-86
2023/03/29 06:10:16;;;;;;;1.57;1.07;;;;;;;7.72;74.16;95837.06;6219245;23;20193;-86
2023/03/29 06:12:43;;;;;;;0.80;0.80;;;;;;;7.74;73.93;95836.91;6218688;23;20173;-86
2023/03/29 06:15:12;;;;;;;2.07;1.10;;;;;;;7.70;74.25;95840.75;6218965;23;20174;-86
2023/03/29 06:17:38;;;;;;;2.03;1.00;;;;;;;7.70;73.72;95831.28;6218935;23;20178;-86
2023/03/29 06:20:09;;;;;;;1.10;1.00;;;;;;;7.64;74.28;95842.16;6218738;23;20201;-86
2023/03/29 06:22:36;;;;;;;3.63;0.90;;;;;;;7.61;74.25;95838.13;6218363;23;20197;-87
2023/03/29 06:25:03;;;;;;;1.27;1.00;;;;;;;7.68;73.90;95847.78;6218426;23;20178;-86
2023/03/29 06:27:31;;;;;;;1.10;0.80;;;;;;;7.73;73.64;95846.34;6219563;23;20226;-86
2023/03/29 06:29:58;;;;;;;1.23;0.93;;;;;;;7.74;73.70;95859.97;6219241;23;20199;-86
2023/03/29 06:32:24;;;;;;;1.00;0.90;;;;;;;7.75;73.55;95851.31;6218741;23;20251;-87
2023/03/29 06:34:51;;;;;;;1.40;1.10;;;;;;;7.76;73.57;95856.31;6219367;23;20188;-86
2023/03/29 06:37:18;;;;;;;3.23;1.00;;;;;;;7.86;72.58;95863.91;6218939;23;20180;-87
2023/03/29 06:39:44;;;;;;;1.90;1.00;;;;;;;7.90;72.18;95871.09;6219153;23;20208;-87
2023/03/29 06:42:11;;;;;;;0.80;0.80;;;;;;;7.95;72.33;95876.59;6219040;23;20275;-87
2023/03/29 06:44:38;;;;;;;1.73;0.90;;;;;;;8.01;71.93;95876.94;6216812;23;20656;-86
2023/03/29 06:47:06;;;;;;;2.40;0.80;;;;;;;8.08;71.33;95876.16;6215463;23;20177;-87
2023/03/29 06:49:32;;;;;;;1.83;0.87;;;;;;;8.15;71.55;95872.03;6216002;23;20177;-87
2023/03/29 06:51:58;;;;;;;0.97;0.93;;;;;;;8.20;71.36;95869.00;6214878;23;20185;-88
2023/03/29 06:54:25;;;;;;;1.93;1.00;;;;;;;8.25;70.87;95875.28;6214608;23;20211;-87
2023/03/29 06:56:52;;;;;;;1.53;1.10;;;;;;;8.33;70.75;95864.25;6215912;23;20718;-85
2023/03/29 06:59:18;;;;;;;1.27;0.90;;;;;;;8.35;70.64;95875.19;6215709;23;20247;-88
2023/03/29 07:01:46;;;;;;;1.53;0.97;;;;;;;8.43;70.84;95867.53;6215617;23;20267;-86
2023/03/29 07:04:13;;;;;;;0.80;0.80;;;;;;;8.37;70.19;95869.91;6216539;23;20183;-87
2023/03/29 07:06:39;;;;;;;1.43;0.93;;;;;;;8.44;70.67;95864.00;6216569;23;20243;-86
2023/03/29 07:09:06;;;;;;;1.60;1.20;;;;;;;8.59;69.98;95861.63;6215332;23;20195;-85
2023/03/29 07:11:34;;;;;;;0.80;0.80;;;;;;;8.56;69.61;95859.38;6217537;23;20538;-87
2023/03/29 07:14:00;;;;;;;1.10;0.90;;;;;;;8.58;69.19;95854.88;6218264;23;20173;-86
2023/03/29 07:16:27;;;;;;;1.50;0.90;;;;;;;8.70;68.92;95853.59;6218307;23;20177;-86
2023/03/29 07:18:55;;;;;;;2.83;1.00;;;;;;;8.78;68.28;95861.34;6217199;23;20177;-87
2023/03/29 07:21:21;;;;;;;1.57;1.20;;;;;;;8.91;67.93;95855.72;6217434;23;20201;-86
2023/03/29 07:23:48;;;;;;;1.20;1.07;;;;;;;9.04;67.27;95855.25;6217597;23;20181;-88
2023/03/29 07:26:15;;;;;;;2.63;1.03;;;;;;;9.06;67.22;95851.56;6217475;23;20177;-86
2023/03/29 07:28:42;;;;;;;1.10;1.03;;;;;;;9.12;66.20;95863.75;6217554;23;20177;-86
2023/03/29 07:31:10;;;;;;;1.30;0.93;;;;;;;9.19;66.59;95853.66;6220820;23;20193;-87
2023/03/29 07:33:37;;;;;;;2.73;1.00;;;;;;;9.28;65.78;95861.19;6220220;23;20177;-87
2023/03/29 07:36:06;;;;;;;3.03;1.20;;;;;;;9.42;65.61;95869.22;6220083;23;20170;-87
2023/03/29 07:38:33;;;;;;;1.30;1.00;;;;;;;9.52;65.00;95862.13;6219114;23;20176;-88
2023/03/29 07:40:59;;;;;;;1.93;1.00;;;;;;;9.55;64.80;95878.03;6218575;23;20653;-88
2023/03/29 07:43:26;;;;;;;1.37;1.20;;;;;;;9.63;64.73;95869.50;6220512;23;20173;-87
2023/03/29 07:45:52;;;;;;;0.93;0.93;;;;;;;9.58;65.13;95866.63;6220030;23;20515;-86
2023/03/29 07:48:19;;;;;;;4.73;1.13;;;;;;;9.55;65.17;95870.31;6219708;23;20178;-87
2023/03/29 07:50:45;;;;;;;1.07;0.90;;;;;;;9.38;64.69;95888.50;6219163;23;20194;-88
2023/03/29 07:53:13;;;;;;;1.53;1.10;;;;;;;9.37;65.30;95886.88;6218973;23;20177;-88
2023/03/29 07:55:46;;;;;;;1.30;1.10;;;;;;;9.23;65.39;95883.22;6218549;23;20181;-87
2023/03/29 07:58:12;;;;;;;1.40;1.10;;;;;;;9.23;65.65;95890.91;6218911;23;20162;-87
2023/03/29 08:00:39;;;;;;;1.23;0.90;;;;;;;9.41;65.65;95885.59;6218044;23;20202;-86
2023/03/29 08:03:06;;;;;;;2.00;1.00;;;;;;;9.41;65.38;95881.28;6219199;23;20180;-88
2023/03/29 08:05:32;;;;;;;2.57;1.10;;;;;;;9.46;65.23;95880.75;6219825;23;20178;-86
2023/03/29 08:07:59;;;;;;;1.43;1.10;;;;;;;9.54;65.15;95885.91;6218771;23;20169;-86
2023/03/29 08:10:27;;;;;;;2.53;1.20;;;;;;;9.54;64.09;95881.56;6221284;23;20193;-86
2023/03/29 08:12:53;;;;;;;2.87;1.17;;;;;;;9.56;64.30;95884.78;6220906;23;20177;-87
2023/03/29 08:15:20;;;;;;;1.87;1.17;;;;;;;9.57;64.72;95878.69;6220081;23;20177;-87
2023/03/29 08:17:47;;;;;;;1.33;0.90;;;;;;;9.63;64.08;95877.22;6221632;23;20173;-87
2023/03/29 08:20:15;;;;;;;2.60;1.33;;;;;;;9.64;63.97;95878.81;6221517;23;20221;-88
2023/03/29 08:22:41;;;;;;;1.40;1.07;;;;;;;9.55;63.49;95893.47;6220438;23;20452;-87
2023/03/29 08:25:10;;;;;;;2.27;1.00;;;;;;;9.54;63.47;95893.63;6221605;23;20178;-86
2023/03/29 08:27:38;;;;;;;1.77;0.90;;;;;;;9.45;63.45;95892.81;6221390;23;20180;-86
2023/03/29 08:30:08;;;;;;;1.20;0.83;;;;;;;9.50;63.25;95882.06;6219644;23;20197;-88
2023/03/29 08:32:34;;;;;;;2.03;0.80;;;;;;;9.55;62.77;95879.81;6221019;23;20173;-86
2023/03/29 08:35:02;;;;;;;4.57;1.40;;;;;;;9.67;63.03;95889.56;6219747;23;20416;-87
2023/03/29 08:37:29;;;;;;;2.70;1.00;;;;;;;9.60;62.60;95885.28;6220041;23;20334;-87
2023/03/29 08:39:55;;;;;;;3.50;1.10;;;;;;;9.68;62.90;95890.38;6220419;23;20523;-86
2023/03/29 08:42:52;;;;;;;1.30;1.10;;;;;;;9.68;62.62;95890.38;6219874;23;20181;-86
2023/03/29 08:45:26;;;;;;;1.13;1.03;;;;;;;9.81;62.61;95877.03;6220234;23;20780;-86
2023/03/29 08:47:59;;;;;;;1.83;1.27;;;;;;;9.88;62.35;95886.50;6219409;23;20166;-88
2023/03/29 08:50:33;;;;;;;1.50;0.90;;;;;;;9.94;61.78;95882.47;6220540;23;20381;-87
2023/03/29 08:53:04;;;;;;;2.77;1.50;;;;;;;10.16;61.39;95881.75;6221639;23;20161;-87
2023/03/29 08:55:33;;;;;;;2.80;1.10;;;;;;;10.36;60.85;95875.28;6219472;23;20220;-88
2023/03/29 08:58:02;;;;;;;2.03;1.03;;;;;;;10.40;60.22;95880.88;6220478;23;20220;-87
2023/03/29 09:00:36;;;;;;;1.47;0.90;;;;;;;10.49;59.41;95872.16;6219371;23;20395;-86
2023/03/29 09:03:10;;;;;;;1.80;1.07;;;;;;;10.62;59.76;95874.97;6220144;23;20162;-87
2023/03/29 09:05:44;;;;;;;1.30;1.10;;;;;;;10.61;59.46;95870.78;6218953;23;20162;-86
2023/03/29 09:08:15;;;;;;;1.93;1.10;;;;;;;10.64;60.13;95873.03;6220066;23;20158;-87
2023/03/29 09:10:45;;;;;;;3.17;1.40;;;;;;;10.66;60.01;95878.81;6220227;23;20205;-87
2023/03/29 09:13:30;;;;;;;1.03;0.93;;;;;;;10.48;60.21;95875.69;6220282;23;20162;-87
2023/03/29 09:16:04;;;;;;;2.13;1.07;;;;;;;10.47;60.13;95881.81;6220398;23;20177;-86
2023/03/29 09:18:41;;;;;;;4.43;1.13;;;;;;;10.49;60.37;95873.91;6220581;23;20192;-88
2023/03/29 09:21:16;;;;;;;1.73;1.30;;;;;;;10.45;59.75;95876.03;6220622;23;20247;-88
2023/03/29 09:24:08;;;;;;;1.63;1.00;;;;;;;10.50;60.04;95880.66;6220933;23;20161;-87
2023/03/29 09:26:41;;;;;;;3.23;1.27;;;;;;;10.60;60.38;95882.06;6220711;23;20198;-87
2023/03/29 09:29:27;;;;;;;2.10;1.20;;;;;;;10.56;59.75;95885.16;6220958;23;20169;-87
2023/03/29 09:31:55;;;;;;;1.50;1.20;;;;;;;10.61;59.36;95883.66;6221242;23;20165;-86
2023/03/29 09:34:31;;;;;;;1.90;1.10;;;;;;;10.63;59.84;95884.28;6220388;23;20188;-87
2023/03/29 09:37:03;;;;;;;1.73;1.00;;;;;;;10.67;60.25;95879.63;6219838;23;20162;-86
2023/03/29 09:39:29;;;;;;;1.30;1.07;;;;;;;10.76;59.79;95885.53;6219199;23;20158;-86
2023/03/29 09:42:00;;;;;;;1.10;0.80;;;;;;;10.72;59.55;95879.91;6218807;23;20197;-86
2023/03/29 09:44:31;;;;;;;1.10;1.00;;;;;;;10.70;59.45;95887.81;6219712;23;20162;-86
2023/03/29 09:47:03;;;;;;;1.77;1.00;;;;;;;10.69;59.52;95878.47;6219262;23;20162;-86
2023/03/29 09:49:36;;;;;;;1.30;0.90;;;;;;;10.78;59.38;95876.63;6220655;23;20212;-87
2023/03/29 09:52:09;;;;;;;1.33;1.10;;;;;;;10.87;59.22;95870.47;6219468;23;20158;-87
2023/03/29 09:54:36;;;;;;;3.80;1.07;;;;;;;10.95;58.92;95867.88;6220971;23;20437;-88
2023/03/29 09:57:03;;;;;;;3.33;1.10;;;;;;;11.05;58.87;95865.84;6220076;23;20208;-87
2023/03/29 09:59:31;;;;;;;1.13;1.00;;;;;;;11.17;58.11;95866.22;6219237;23;20177;-87
2023/03/29 10:02:06;;;;;;;2.53;1.00;;;;;;;11.20;57.85;95868.47;6218854;23;20194;-87
2023/03/29 10:04:32;;;;;;;1.37;1.00;;;;;;;11.19;57.90;95861.72;6219764;23;20216;-86
2023/03/29 10:06:59;;;;;;;1.33;1.03;;;;;;;11.22;57.70;95856.22;6219913;23;20177;-87
2023/03/29 10:09:29;;;;;;;2.80;1.10;;;;;;;11.30;57.91;95848.41;6219937;23;20181;-86
2023/03/29 10:11:58;;;;;;;1.07;0.97;;;;;;;11.35;56.84;95850.47;6221147;23;20170;-86
2023/03/29 10:14:33;;;;;;;1.30;1.00;;;;;;;11.37;56.02;95848.50;6220768;23;20641;-85
2023/03/29 10:17:00;;;;;;;1.27;1.13;;;;;;;11.40;55.84;95848.97;6221695;23;20157;-88
2023/03/29 10:19:29;;;;;;;3.13;1.37;;;;;;;11.47;55.71;95838.75;6221236;23;20189;-87
2023/03/29 10:22:00;;;;;;;1.20;1.03;;;;;;;11.56;56.02;95844.63;6220575;23;20199;-86
2023/03/29 10:24:27;;;;;;;3.67;1.10;;;;;;;11.62;55.39;95846.50;6220538;23;20165;-88
2023/03/29 10:26:56;;;;;;;4.37;1.20;;;;;;;11.68;55.16;95846.63;6220815;23;20181;-86
2023/03/29 10:29:24;;;;;;;8.23;1.40;;;;;;;11.67;54.88;95849.38;6219685;23;20169;-85
2023/03/29 10:31:52;;;;;;;3.60;2.30;;;;;;;11.69;54.83;95847.41;6219426;23;20198;-86
2023/03/29 10:34:24;;;;;;;2.90;2.37;;;;;;;11.75;54.88;95837.16;6220160;23;20177;-87
2023/03/29 10:36:56;;;;;;;1.77;1.10;;;;;;;11.70;54.70;95826.59;6220900;23;20165;-86
2023/03/29 10:39:26;;;;;;;2.97;1.33;;;;;;;11.81;54.68;95824.59;6220437;23;20617;-87
2023/03/29 10:41:53;;;;;;;2.13;0.90;;;;;;;11.86;53.88;95830.00;6220877;23;20208;-87
2023/03/29 10:44:28;;;;;;;1.30;1.10;;;;;;;11.93;53.50;95829.09;6220961;23;20177;-86
2023/03/29 10:46:56;;;;;;;1.43;1.00;;;;;;;12.02;53.42;95828.06;6220110;23;20177;-86
2023/03/29 10:49:24;;;;;;;2.47;1.17;;;;;;;12.14;53.18;95837.91;6219453;23;20173;-86
2023/03/29 10:51:52;;;;;;;0.93;0.90;;;;;;;12.21;53.00;95826.69;6218835;23;20196;-87
2023/03/29 10:54:22;;;;;;;1.40;1.10;;;;;;;12.28;52.43;95822.41;6218775;23;20645;-88
2023/03/29 10:56:52;;;;;;;3.73;1.50;;;;;;;12.40;53.18;95818.38;6220893;23;20166;-87
2023/03/29 10:59:28;;;;;;;1.90;1.20;;;;;;;12.48;52.57;95824.44;6219816;23;20162;-87
2023/03/29 11:02:22;;;;;;;3.47;1.20;;;;;;;12.58;52.92;95823.13;6223409;23;20204;-88
2023/03/29 11:04:55;;;;;;;1.27;0.97;;;;;;;12.61;53.08;95811.66;6221859;23;20173;-88
2023/03/29 11:07:31;;;;;;;0.80;0.80;;;;;;;12.56;51.91;95819.13;6221641;23;20169;-86
2023/03/29 11:10:14;;;;;;;3.40;1.03;;;;;;;12.49;51.95;95811.34;6221020;23;20253;-86
2023/03/29 11:12:47;;;;;;;2.27;1.10;;;;;;;12.54;52.00;95808.97;6219802;23;20486;-87
2023/03/29 11:15:28;;;;;;;3.60;1.27;;;;;;;12.64;51.99;95801.75;6219491;23;20169;-87
2023/03/29 11:18:11;;;;;;;8.23;5.30;;;;;;;12.71;51.52;95806.97;6219803;23;20161;-86
2023/03/29 11:20:44;;;;;;;5.17;3.60;;;;;;;12.79;51.83;95807.66;6219704;23;20224;-88
2023/03/29 11:23:26;;;;;;;1.73;1.40;;;;;;;12.84;51.11;95809.69;6218792;23;20168;-87
2023/03/29 11:26:04;;;;;;;1.23;1.10;;;;;;;12.86;50.65;95812.09;6218914;23;20173;-86
2023/03/29 11:28:41;;;;;;;3.17;1.13;;;;;;;12.90;50.32;95806.34;6220079;23;20161;-87
2023/03/29 11:31:16;;;;;;;1.27;1.03;;;;;;;12.95;51.24;95810.97;6219625;23;20200;-88
2023/03/29 11:33:53;;;;;;;3.03;1.17;;;;;;;12.97;49.67;95809.00;6218756;23;20162;-86
2023/03/29 11:36:30;;;;;;;2.43;1.13;;;;;;;13.06;51.23;95806.13;6218303;23;20165;-88
2023/03/29 11:39:08;;;;;;;1.63;1.10;;;;;;;13.11;49.93;95800.38;6219188;23;20158;-87
2023/03/29 11:41:38;;;;;;;2.30;1.33;;;;;;;13.12;49.49;95809.72;6218342;23;20197;-86
2023/03/29 11:44:12;;;;;;;2.17;1.00;;;;;;;13.13;49.39;95806.97;6219721;23;20616;-87
2023/03/29 11:46:42;;;;;;;1.73;1.30;;;;;;;13.18;49.11;95805.63;6220008;23;20162;-87
2023/03/29 11:49:17;;;;;;;4.93;2.27;;;;;;;13.20;49.20;95801.88;6221774;23;20162;-86
2023/03/29 11:51:49;;;;;;;2.43;1.30;;;;;;;13.17;48.63;95809.19;6220754;23;20669;-89